sensor_id;sensor_type;location;lat;lon;timestamp;temperature;humidity
20658;DHT22;10488;50.846;4.078;2024-02-16T00:00:44;13.60;99.90
20658;DHT22;10488;50.846;4.078;2024-02-16T00:03:12;13.60;99.90
20658;DHT22;10488;50.846;4.078;2024-02-16T00:05:37;13.60;99.90
20658;DHT22;10488;50.846;4.078;2024-02-16T00:08:03;13.50;99.90
20658;DHT22;10488;50.846;4.078;2024-02-16T00:10:29;13.50;99.90
20658;DHT22;10488;50.846;4.078;2024-02-16T00:12:56;13.50;99.90
20658;DHT22;10488;50.846;4.078;2024-02-16T00:15:22;13.40;99.90
20658;DHT22;10488;50.846;4.078;2024-02-16T00:17:47;13.40;99.90
20658;DHT22;10488;50.846;4.078;2024-02-16T00:20:14;13.50;99.90
20658;DHT22;10488;50.846;4.078;2024-02-16T00:22:39;13.50;99.90
20658;DHT22;10488;50.846;4.078;2024-02-16T00:25:05;13.40;99.90
20658;DHT22;10488;50.846;4.078;2024-02-16T00:27:31;13.50;99.90
20658;DHT22;10488;50.846;4.078;2024-02-16T00:29:57;13.50;99.90
20658;DHT22;10488;50.846;4.078;2024-02-16T00:32:22;13.60;99.90
20658;DHT22;10488;50.846;4.078;2024-02-16T00:34:50;13.60;99.90
20658;DHT22;10488;50.846;4.078;2024-02-16T00:37:19;13.50;99.90
20658;DHT22;10488;50.846;4.078;2024-02-16T00:39:44;13.40;99.90
20658;DHT22;10488;50.846;4.078;2024-02-16T00:42:10;13.30;99.90
20658;DHT22;10488;50.846;4.078;2024-02-16T00:44:36;13.30;99.90
20658;DHT22;10488;50.846;4.078;2024-02-16T00:47:02;13.30;99.90
20658;DHT22;10488;50.846;4.078;2024-02-16T00:49:33;13.30;99.90
20658;DHT22;10488;50.846;4.078;2024-02-16T00:51:59;13.40;99.90
20658;DHT22;10488;50.846;4.078;2024-02-16T00:54:24;13.30;99.90
20658;DHT22;10488;50.846;4.078;2024-02-16T00:56:50;13.40;99.90
20658;DHT22;10488;50.846;4.078;2024-02-16T00:59:16;13.40;99.90
20658;DHT22;10488;50.846;4.078;2024-02-16T01:01:41;13.40;99.90
20658;DHT22;10488;50.846;4.078;2024-02-16T01:04:07;13.30;99.90
20658;DHT22;10488;50.846;4.078;2024-02-16T01:06:33;13.30;99.90
20658;DHT22;10488;50.846;4.078;2024-02-16T01:08:59;13.40;99.90
20658;DHT22;10488;50.846;4.078;2024-02-16T01:11:24;13.40;99.90
20658;DHT22;10488;50.846;4.078;2024-02-16T01:13:51;13.50;99.90
20658;DHT22;10488;50.846;4.078;2024-02-16T01:16:17;13.50;99.90
20658;DHT22;10488;50.846;4.078;2024-02-16T01:18:45;13.50;99.90
20658;DHT22;10488;50.846;4.078;2024-02-16T01:21:11;13.50;99.90
20658;DHT22;10488;50.846;4.078;2024-02-16T01:23:37;13.60;99.90
20658;DHT22;10488;50.846;4.078;2024-02-16T01:26:02;13.50;99.90
20658;DHT22;10488;50.846;4.078;2024-02-16T01:28:28;13.60;99.90
20658;DHT22;10488;50.846;4.078;2024-02-16T01:30:54;13.50;99.90
20658;DHT22;10488;50.846;4.078;2024-02-16T01:33:22;13.60;99.90
20658;DHT22;10488;50.846;4.078;2024-02-16T01:35:47;13.60;99.90
20658;DHT22;10488;50.846;4.078;2024-02-16T01:38:13;13.60;99.90
20658;DHT22;10488;50.846;4.078;2024-02-16T01:40:40;13.60;99.90
20658;DHT22;10488;50.846;4.078;2024-02-16T01:43:05;13.50;99.90
20658;DHT22;10488;50.846;4.078;2024-02-16T01:45:31;13.60;99.90
20658;DHT22;10488;50.846;4.078;2024-02-16T01:47:57;13.60;99.90
20658;DHT22;10488;50.846;4.078;2024-02-16T01:50:23;13.50;99.90
20658;DHT22;10488;50.846;4.078;2024-02-16T01:52:50;13.60;99.90
20658;DHT22;10488;50.846;4.078;2024-02-16T01:55:16;13.60;99.90
20658;DHT22;10488;50.846;4.078;2024-02-16T01:57:43;13.70;99.90
20658;DHT22;10488;50.846;4.078;2024-02-16T02:00:10;13.70;99.90
20658;DHT22;10488;50.846;4.078;2024-02-16T02:02:36;13.60;99.90
20658;DHT22;10488;50.846;4.078;2024-02-16T02:05:02;13.50;99.90
20658;DHT22;10488;50.846;4.078;2024-02-16T02:07:28;13.50;99.90
20658;DHT22;10488;50.846;4.078;2024-02-16T02:09:54;13.50;99.90
20658;DHT22;10488;50.846;4.078;2024-02-16T02:12:20;13.60;99.90
20658;DHT22;10488;50.846;4.078;2024-02-16T02:14:46;13.50;99.90
20658;DHT22;10488;50.846;4.078;2024-02-16T02:17:12;13.40;99.90
20658;DHT22;10488;50.846;4.078;2024-02-16T02:19:38;13.40;99.90
20658;DHT22;10488;50.846;4.078;2024-02-16T02:22:04;13.40;99.90
20658;DHT22;10488;50.846;4.078;2024-02-16T02:24:29;13.40;99.90
20658;DHT22;10488;50.846;4.078;2024-02-16T02:26:55;13.40;99.90
20658;DHT22;10488;50.846;4.078;2024-02-16T02:29:22;13.50;99.90
20658;DHT22;10488;50.846;4.078;2024-02-16T02:31:48;13.40;99.90
20658;DHT22;10488;50.846;4.078;2024-02-16T02:34:14;13.40;99.90
20658;DHT22;10488;50.846;4.078;2024-02-16T02:36:40;13.30;99.90
20658;DHT22;10488;50.846;4.078;2024-02-16T02:39:06;13.50;99.90
20658;DHT22;10488;50.846;4.078;2024-02-16T02:41:32;13.50;99.90
20658;DHT22;10488;50.846;4.078;2024-02-16T02:43:58;13.50;99.90
20658;DHT22;10488;50.846;4.078;2024-02-16T02:46:23;13.60;99.90
20658;DHT22;10488;50.846;4.078;2024-02-16T02:48:50;13.60;99.90
20658;DHT22;10488;50.846;4.078;2024-02-16T02:51:16;13.60;99.90
20658;DHT22;10488;50.846;4.078;2024-02-16T02:53:42;13.60;99.90
20658;DHT22;10488;50.846;4.078;2024-02-16T02:56:08;13.60;99.90
20658;DHT22;10488;50.846;4.078;2024-02-16T02:58:34;13.60;99.90
20658;DHT22;10488;50.846;4.078;2024-02-16T03:01:00;13.70;99.90
20658;DHT22;10488;50.846;4.078;2024-02-16T03:03:25;13.50;99.90
20658;DHT22;10488;50.846;4.078;2024-02-16T03:05:51;13.60;99.90
20658;DHT22;10488;50.846;4.078;2024-02-16T03:08:17;13.60;99.90
20658;DHT22;10488;50.846;4.078;2024-02-16T03:10:43;13.50;99.90
20658;DHT22;10488;50.846;4.078;2024-02-16T03:13:09;13.50;99.90
20658;DHT22;10488;50.846;4.078;2024-02-16T03:15:38;13.50;99.90
20658;DHT22;10488;50.846;4.078;2024-02-16T03:18:05;13.50;99.90
20658;DHT22;10488;50.846;4.078;2024-02-16T03:20:33;13.50;99.90
20658;DHT22;10488;50.846;4.078;2024-02-16T03:22:59;13.60;99.90
20658;DHT22;10488;50.846;4.078;2024-02-16T03:25:24;13.50;99.90
20658;DHT22;10488;50.846;4.078;2024-02-16T03:27:51;13.60;99.90
20658;DHT22;10488;50.846;4.078;2024-02-16T03:30:18;13.60;99.90
20658;DHT22;10488;50.846;4.078;2024-02-16T03:32:48;13.70;99.90
20658;DHT22;10488;50.846;4.078;2024-02-16T03:35:15;13.70;99.90
20658;DHT22;10488;50.846;4.078;2024-02-16T03:37:40;13.70;99.90
20658;DHT22;10488;50.846;4.078;2024-02-16T03:40:08;13.60;99.90
20658;DHT22;10488;50.846;4.078;2024-02-16T03:42:35;13.60;99.90
20658;DHT22;10488;50.846;4.078;2024-02-16T03:45:02;13.60;99.90
20658;DHT22;10488;50.846;4.078;2024-02-16T03:47:28;13.60;99.90
20658;DHT22;10488;50.846;4.078;2024-02-16T03:49:54;13.60;99.90
20658;DHT22;10488;50.846;4.078;2024-02-16T03:52:19;13.70;99.90
20658;DHT22;10488;50.846;4.078;2024-02-16T03:54:45;13.70;99.90
20658;DHT22;10488;50.846;4.078;2024-02-16T03:57:14;13.70;99.90
20658;DHT22;10488;50.846;4.078;2024-02-16T03:59:42;13.70;99.90
20658;DHT22;10488;50.846;4.078;2024-02-16T04:02:09;13.70;99.90
20658;DHT22;10488;50.846;4.078;2024-02-16T04:04:35;13.80;99.90
20658;DHT22;10488;50.846;4.078;2024-02-16T04:07:00;13.80;99.90
20658;DHT22;10488;50.846;4.078;2024-02-16T04:09:26;13.80;99.90
20658;DHT22;10488;50.846;4.078;2024-02-16T04:11:52;13.90;99.90
20658;DHT22;10488;50.846;4.078;2024-02-16T04:14:17;13.80;99.90
20658;DHT22;10488;50.846;4.078;2024-02-16T04:16:46;13.70;99.90
20658;DHT22;10488;50.846;4.078;2024-02-16T04:19:11;13.70;99.90
20658;DHT22;10488;50.846;4.078;2024-02-16T04:21:37;13.70;99.90
20658;DHT22;10488;50.846;4.078;2024-02-16T04:24:02;13.80;99.90
20658;DHT22;10488;50.846;4.078;2024-02-16T04:26:28;13.70;99.90
20658;DHT22;10488;50.846;4.078;2024-02-16T04:28:54;13.70;99.90
20658;DHT22;10488;50.846;4.078;2024-02-16T04:31:20;13.70;99.90
20658;DHT22;10488;50.846;4.078;2024-02-16T04:33:45;13.70;99.90
20658;DHT22;10488;50.846;4.078;2024-02-16T04:36:11;13.70;99.90
20658;DHT22;10488;50.846;4.078;2024-02-16T04:38:36;13.70;99.90
20658;DHT22;10488;50.846;4.078;2024-02-16T04:41:04;13.70;99.90
20658;DHT22;10488;50.846;4.078;2024-02-16T04:43:30;13.60;99.90
20658;DHT22;10488;50.846;4.078;2024-02-16T04:45:56;13.60;99.90
20658;DHT22;10488;50.846;4.078;2024-02-16T04:48:21;13.60;99.90
20658;DHT22;10488;50.846;4.078;2024-02-16T04:50:47;13.60;99.90
20658;DHT22;10488;50.846;4.078;2024-02-16T04:53:12;13.60;99.90
20658;DHT22;10488;50.846;4.078;2024-02-16T04:55:38;13.60;99.90
20658;DHT22;10488;50.846;4.078;2024-02-16T04:58:03;13.60;99.90
20658;DHT22;10488;50.846;4.078;2024-02-16T05:00:36;13.60;99.90
20658;DHT22;10488;50.846;4.078;2024-02-16T05:03:02;13.70;99.90
20658;DHT22;10488;50.846;4.078;2024-02-16T05:05:28;13.70;99.90
20658;DHT22;10488;50.846;4.078;2024-02-16T05:07:53;13.80;99.90
20658;DHT22;10488;50.846;4.078;2024-02-16T05:10:19;13.80;99.90
20658;DHT22;10488;50.846;4.078;2024-02-16T05:12:45;13.80;99.90
20658;DHT22;10488;50.846;4.078;2024-02-16T05:15:11;13.70;99.90
20658;DHT22;10488;50.846;4.078;2024-02-16T05:17:39;13.70;99.90
20658;DHT22;10488;50.846;4.078;2024-02-16T05:20:12;13.80;99.90
20658;DHT22;10488;50.846;4.078;2024-02-16T05:22:44;13.70;99.90
20658;DHT22;10488;50.846;4.078;2024-02-16T05:25:12;13.70;99.90
20658;DHT22;10488;50.846;4.078;2024-02-16T05:27:37;13.70;99.90
20658;DHT22;10488;50.846;4.078;2024-02-16T05:30:04;13.70;99.90
20658;DHT22;10488;50.846;4.078;2024-02-16T05:32:36;13.60;99.90
20658;DHT22;10488;50.846;4.078;2024-02-16T05:35:03;13.70;99.90
20658;DHT22;10488;50.846;4.078;2024-02-16T05:37:46;13.70;99.90
20658;DHT22;10488;50.846;4.078;2024-02-16T05:40:19;13.60;99.90
20658;DHT22;10488;50.846;4.078;2024-02-16T05:42:54;13.70;99.90
20658;DHT22;10488;50.846;4.078;2024-02-16T05:45:23;13.70;99.90
20658;DHT22;10488;50.846;4.078;2024-02-16T05:47:49;13.70;99.90
20658;DHT22;10488;50.846;4.078;2024-02-16T05:50:15;13.70;99.90
20658;DHT22;10488;50.846;4.078;2024-02-16T05:52:42;13.70;99.90
20658;DHT22;10488;50.846;4.078;2024-02-16T05:55:08;13.60;99.90
20658;DHT22;10488;50.846;4.078;2024-02-16T05:57:35;13.60;99.90
20658;DHT22;10488;50.846;4.078;2024-02-16T06:00:02;13.60;99.90
20658;DHT22;10488;50.846;4.078;2024-02-16T06:02:30;13.60;99.90
20658;DHT22;10488;50.846;4.078;2024-02-16T06:04:55;13.70;99.90
20658;DHT22;10488;50.846;4.078;2024-02-16T06:07:21;13.70;99.90
20658;DHT22;10488;50.846;4.078;2024-02-16T06:09:47;13.70;99.90
20658;DHT22;10488;50.846;4.078;2024-02-16T06:12:13;13.80;99.90
20658;DHT22;10488;50.846;4.078;2024-02-16T06:14:39;13.70;99.90
20658;DHT22;10488;50.846;4.078;2024-02-16T06:17:04;13.70;99.90
20658;DHT22;10488;50.846;4.078;2024-02-16T06:19:30;13.70;99.90
20658;DHT22;10488;50.846;4.078;2024-02-16T06:21:56;13.90;99.90
20658;DHT22;10488;50.846;4.078;2024-02-16T06:24:22;13.80;99.90
20658;DHT22;10488;50.846;4.078;2024-02-16T06:26:48;13.90;99.90
20658;DHT22;10488;50.846;4.078;2024-02-16T06:29:14;13.80;99.90
20658;DHT22;10488;50.846;4.078;2024-02-16T06:31:40;13.90;99.90
20658;DHT22;10488;50.846;4.078;2024-02-16T06:34:05;13.80;99.90
20658;DHT22;10488;50.846;4.078;2024-02-16T06:36:31;13.70;99.90
20658;DHT22;10488;50.846;4.078;2024-02-16T06:38:56;13.80;99.90
20658;DHT22;10488;50.846;4.078;2024-02-16T06:41:22;13.80;99.90
20658;DHT22;10488;50.846;4.078;2024-02-16T06:43:48;13.70;99.90
20658;DHT22;10488;50.846;4.078;2024-02-16T06:46:13;13.60;99.90
20658;DHT22;10488;50.846;4.078;2024-02-16T06:48:39;13.60;99.90
20658;DHT22;10488;50.846;4.078;2024-02-16T06:51:04;13.70;99.90
20658;DHT22;10488;50.846;4.078;2024-02-16T06:53:30;13.70;99.90
20658;DHT22;10488;50.846;4.078;2024-02-16T06:55:56;13.80;99.90
20658;DHT22;10488;50.846;4.078;2024-02-16T06:58:21;13.80;99.90
20658;DHT22;10488;50.846;4.078;2024-02-16T07:00:47;13.70;99.90
20658;DHT22;10488;50.846;4.078;2024-02-16T07:03:13;13.80;99.90
20658;DHT22;10488;50.846;4.078;2024-02-16T07:05:38;13.70;99.90
20658;DHT22;10488;50.846;4.078;2024-02-16T07:08:05;13.70;99.90
20658;DHT22;10488;50.846;4.078;2024-02-16T07:10:33;13.70;99.90
20658;DHT22;10488;50.846;4.078;2024-02-16T07:12:59;13.70;99.90
20658;DHT22;10488;50.846;4.078;2024-02-16T07:15:25;13.70;99.90
20658;DHT22;10488;50.846;4.078;2024-02-16T07:17:52;13.70;99.90
20658;DHT22;10488;50.846;4.078;2024-02-16T07:20:18;13.70;99.90
20658;DHT22;10488;50.846;4.078;2024-02-16T07:22:44;13.60;99.90
20658;DHT22;10488;50.846;4.078;2024-02-16T07:25:12;13.60;99.90
20658;DHT22;10488;50.846;4.078;2024-02-16T07:27:38;13.60;99.90
20658;DHT22;10488;50.846;4.078;2024-02-16T07:30:04;13.70;99.90
20658;DHT22;10488;50.846;4.078;2024-02-16T07:32:30;13.60;99.90
20658;DHT22;10488;50.846;4.078;2024-02-16T07:34:56;13.60;99.90
20658;DHT22;10488;50.846;4.078;2024-02-16T07:37:21;13.70;99.90
20658;DHT22;10488;50.846;4.078;2024-02-16T07:39:47;13.80;99.90
20658;DHT22;10488;50.846;4.078;2024-02-16T07:42:12;13.80;99.90
20658;DHT22;10488;50.846;4.078;2024-02-16T07:44:39;13.80;99.90
20658;DHT22;10488;50.846;4.078;2024-02-16T07:47:05;13.80;99.90
20658;DHT22;10488;50.846;4.078;2024-02-16T07:49:31;13.80;99.90
20658;DHT22;10488;50.846;4.078;2024-02-16T07:51:57;13.80;99.90
20658;DHT22;10488;50.846;4.078;2024-02-16T07:54:23;13.90;99.90
20658;DHT22;10488;50.846;4.078;2024-02-16T07:56:49;14.00;99.90
20658;DHT22;10488;50.846;4.078;2024-02-16T07:59:15;14.00;99.90
20658;DHT22;10488;50.846;4.078;2024-02-16T08:01:41;14.00;99.90
20658;DHT22;10488;50.846;4.078;2024-02-16T08:04:09;14.10;99.90
20658;DHT22;10488;50.846;4.078;2024-02-16T08:06:35;14.10;99.90
20658;DHT22;10488;50.846;4.078;2024-02-16T08:09:01;14.10;99.90
20658;DHT22;10488;50.846;4.078;2024-02-16T08:11:27;14.10;99.90
20658;DHT22;10488;50.846;4.078;2024-02-16T08:13:53;14.10;99.90
20658;DHT22;10488;50.846;4.078;2024-02-16T08:16:18;14.10;99.90
20658;DHT22;10488;50.846;4.078;2024-02-16T08:18:44;14.10;99.90
20658;DHT22;10488;50.846;4.078;2024-02-16T08:21:11;14.10;99.90
20658;DHT22;10488;50.846;4.078;2024-02-16T08:23:36;14.10;99.90
20658;DHT22;10488;50.846;4.078;2024-02-16T08:26:03;14.20;99.90
20658;DHT22;10488;50.846;4.078;2024-02-16T08:28:29;14.30;99.90
20658;DHT22;10488;50.846;4.078;2024-02-16T08:30:55;14.20;99.90
20658;DHT22;10488;50.846;4.078;2024-02-16T08:33:20;14.20;99.90
20658;DHT22;10488;50.846;4.078;2024-02-16T08:35:46;14.30;99.90
20658;DHT22;10488;50.846;4.078;2024-02-16T08:38:12;14.30;99.90
20658;DHT22;10488;50.846;4.078;2024-02-16T08:40:38;14.50;99.90
20658;DHT22;10488;50.846;4.078;2024-02-16T08:43:06;14.50;99.90
20658;DHT22;10488;50.846;4.078;2024-02-16T08:45:33;14.50;99.90
20658;DHT22;10488;50.846;4.078;2024-02-16T08:47:59;14.40;99.90
20658;DHT22;10488;50.846;4.078;2024-02-16T08:50:26;14.40;99.90
20658;DHT22;10488;50.846;4.078;2024-02-16T08:52:52;14.30;99.90
20658;DHT22;10488;50.846;4.078;2024-02-16T08:55:18;14.20;99.90
20658;DHT22;10488;50.846;4.078;2024-02-16T08:57:44;14.20;99.90
20658;DHT22;10488;50.846;4.078;2024-02-16T09:00:11;14.20;99.90
20658;DHT22;10488;50.846;4.078;2024-02-16T09:02:37;14.20;99.90
20658;DHT22;10488;50.846;4.078;2024-02-16T09:05:03;14.00;99.90
20658;DHT22;10488;50.846;4.078;2024-02-16T09:07:29;13.90;99.90
20658;DHT22;10488;50.846;4.078;2024-02-16T09:09:55;13.90;99.90
20658;DHT22;10488;50.846;4.078;2024-02-16T09:12:22;13.90;99.90
20658;DHT22;10488;50.846;4.078;2024-02-16T09:14:47;13.90;99.90
20658;DHT22;10488;50.846;4.078;2024-02-16T09:17:13;13.90;99.90
20658;DHT22;10488;50.846;4.078;2024-02-16T09:19:39;13.90;99.90
20658;DHT22;10488;50.846;4.078;2024-02-16T09:22:04;13.90;99.90
20658;DHT22;10488;50.846;4.078;2024-02-16T09:24:32;13.90;99.90
20658;DHT22;10488;50.846;4.078;2024-02-16T09:26:58;14.00;99.90
20658;DHT22;10488;50.846;4.078;2024-02-16T09:29:29;14.10;99.90
20658;DHT22;10488;50.846;4.078;2024-02-16T09:31:54;14.00;99.90
20658;DHT22;10488;50.846;4.078;2024-02-16T09:34:20;14.00;99.90
20658;DHT22;10488;50.846;4.078;2024-02-16T09:36:46;14.10;99.90
20658;DHT22;10488;50.846;4.078;2024-02-16T09:39:11;14.00;99.90
20658;DHT22;10488;50.846;4.078;2024-02-16T09:41:44;14.10;99.90
20658;DHT22;10488;50.846;4.078;2024-02-16T09:44:16;14.20;99.90
20658;DHT22;10488;50.846;4.078;2024-02-16T09:46:43;14.10;99.90
20658;DHT22;10488;50.846;4.078;2024-02-16T09:49:08;14.30;99.90
20658;DHT22;10488;50.846;4.078;2024-02-16T09:51:38;14.40;99.90
20658;DHT22;10488;50.846;4.078;2024-02-16T09:54:04;14.30;99.90
20658;DHT22;10488;50.846;4.078;2024-02-16T09:56:30;14.30;99.90
20658;DHT22;10488;50.846;4.078;2024-02-16T09:58:55;14.20;99.90
20658;DHT22;10488;50.846;4.078;2024-02-16T10:01:22;14.10;99.90
20658;DHT22;10488;50.846;4.078;2024-02-16T10:03:49;14.20;99.90
20658;DHT22;10488;50.846;4.078;2024-02-16T10:06:16;14.10;99.90
20658;DHT22;10488;50.846;4.078;2024-02-16T10:08:49;14.00;99.90
20658;DHT22;10488;50.846;4.078;2024-02-16T10:11:16;14.10;99.90
20658;DHT22;10488;50.846;4.078;2024-02-16T10:13:57;14.20;99.90
20658;DHT22;10488;50.846;4.078;2024-02-16T10:16:23;14.30;99.90
20658;DHT22;10488;50.846;4.078;2024-02-16T10:18:49;14.20;99.90
20658;DHT22;10488;50.846;4.078;2024-02-16T10:21:26;14.10;99.90
20658;DHT22;10488;50.846;4.078;2024-02-16T10:24:06;14.10;99.90
20658;DHT22;10488;50.846;4.078;2024-02-16T10:26:36;14.20;99.90
20658;DHT22;10488;50.846;4.078;2024-02-16T10:29:03;14.20;99.90
20658;DHT22;10488;50.846;4.078;2024-02-16T10:31:30;14.10;99.90
20658;DHT22;10488;50.846;4.078;2024-02-16T10:34:00;14.20;99.90
20658;DHT22;10488;50.846;4.078;2024-02-16T10:36:32;14.20;99.90
20658;DHT22;10488;50.846;4.078;2024-02-16T10:38:58;14.20;99.90
20658;DHT22;10488;50.846;4.078;2024-02-16T10:41:26;14.10;99.90
20658;DHT22;10488;50.846;4.078;2024-02-16T10:43:55;14.10;99.90
20658;DHT22;10488;50.846;4.078;2024-02-16T10:46:22;14.00;99.90
20658;DHT22;10488;50.846;4.078;2024-02-16T10:48:48;14.10;99.90
20658;DHT22;10488;50.846;4.078;2024-02-16T10:51:16;14.00;99.90
20658;DHT22;10488;50.846;4.078;2024-02-16T10:53:45;14.00;99.90
20658;DHT22;10488;50.846;4.078;2024-02-16T10:56:13;14.10;99.90
20658;DHT22;10488;50.846;4.078;2024-02-16T10:58:39;14.10;99.90
20658;DHT22;10488;50.846;4.078;2024-02-16T11:01:09;14.00;99.90
20658;DHT22;10488;50.846;4.078;2024-02-16T11:03:38;13.80;99.90
20658;DHT22;10488;50.846;4.078;2024-02-16T11:06:17;13.80;99.90
20658;DHT22;10488;50.846;4.078;2024-02-16T11:08:42;13.80;99.90
20658;DHT22;10488;50.846;4.078;2024-02-16T11:11:08;13.80;99.90
20658;DHT22;10488;50.846;4.078;2024-02-16T11:13:37;13.90;99.90
20658;DHT22;10488;50.846;4.078;2024-02-16T11:16:07;13.90;99.90
20658;DHT22;10488;50.846;4.078;2024-02-16T11:18:41;14.10;99.90
20658;DHT22;10488;50.846;4.078;2024-02-16T11:21:12;14.10;99.90
20658;DHT22;10488;50.846;4.078;2024-02-16T11:23:40;13.90;99.90
20658;DHT22;10488;50.846;4.078;2024-02-16T11:26:09;13.80;99.90
20658;DHT22;10488;50.846;4.078;2024-02-16T11:28:40;13.80;99.90
20658;DHT22;10488;50.846;4.078;2024-02-16T11:31:06;13.60;99.90
20658;DHT22;10488;50.846;4.078;2024-02-16T11:33:35;13.70;99.90
20658;DHT22;10488;50.846;4.078;2024-02-16T11:36:03;13.60;99.90
20658;DHT22;10488;50.846;4.078;2024-02-16T11:38:35;13.50;99.90
20658;DHT22;10488;50.846;4.078;2024-02-16T11:41:03;13.40;99.90
20658;DHT22;10488;50.846;4.078;2024-02-16T11:43:30;13.50;99.90
20658;DHT22;10488;50.846;4.078;2024-02-16T11:45:56;13.50;99.90
20658;DHT22;10488;50.846;4.078;2024-02-16T11:48:23;13.60;99.90
20658;DHT22;10488;50.846;4.078;2024-02-16T11:50:58;13.60;99.90
20658;DHT22;10488;50.846;4.078;2024-02-16T11:53:23;13.70;99.90
20658;DHT22;10488;50.846;4.078;2024-02-16T11:55:49;13.90;99.90
20658;DHT22;10488;50.846;4.078;2024-02-16T11:58:18;14.10;99.90
20658;DHT22;10488;50.846;4.078;2024-02-16T12:00:45;14.30;99.90
20658;DHT22;10488;50.846;4.078;2024-02-16T12:03:11;14.40;99.90
20658;DHT22;10488;50.846;4.078;2024-02-16T12:05:37;14.20;99.90
20658;DHT22;10488;50.846;4.078;2024-02-16T12:08:06;14.10;99.90
20658;DHT22;10488;50.846;4.078;2024-02-16T12:10:31;14.10;99.90
20658;DHT22;10488;50.846;4.078;2024-02-16T12:12:58;14.20;99.90
20658;DHT22;10488;50.846;4.078;2024-02-16T12:15:23;14.00;99.90
20658;DHT22;10488;50.846;4.078;2024-02-16T12:17:58;14.20;99.90
20658;DHT22;10488;50.846;4.078;2024-02-16T12:20:25;14.30;99.90
20658;DHT22;10488;50.846;4.078;2024-02-16T12:22:51;14.40;99.90
20658;DHT22;10488;50.846;4.078;2024-02-16T12:25:17;14.30;99.90
20658;DHT22;10488;50.846;4.078;2024-02-16T12:27:42;14.30;99.90
20658;DHT22;10488;50.846;4.078;2024-02-16T12:30:08;14.00;99.90
20658;DHT22;10488;50.846;4.078;2024-02-16T12:32:34;14.00;99.90
20658;DHT22;10488;50.846;4.078;2024-02-16T12:35:00;13.80;99.90
20658;DHT22;10488;50.846;4.078;2024-02-16T12:37:25;13.80;99.90
20658;DHT22;10488;50.846;4.078;2024-02-16T12:39:51;13.80;99.90
20658;DHT22;10488;50.846;4.078;2024-02-16T12:42:16;13.80;99.90
20658;DHT22;10488;50.846;4.078;2024-02-16T12:44:42;13.80;99.90
20658;DHT22;10488;50.846;4.078;2024-02-16T12:47:07;13.90;99.90
20658;DHT22;10488;50.846;4.078;2024-02-16T12:49:33;14.00;99.90
20658;DHT22;10488;50.846;4.078;2024-02-16T12:52:01;14.10;99.90
20658;DHT22;10488;50.846;4.078;2024-02-16T12:54:26;14.20;99.90
20658;DHT22;10488;50.846;4.078;2024-02-16T12:56:52;14.30;99.90
20658;DHT22;10488;50.846;4.078;2024-02-16T12:59:19;14.30;99.90
20658;DHT22;10488;50.846;4.078;2024-02-16T13:01:45;14.30;99.90
20658;DHT22;10488;50.846;4.078;2024-02-16T13:04:11;14.30;99.90
20658;DHT22;10488;50.846;4.078;2024-02-16T13:06:38;14.30;99.90
20658;DHT22;10488;50.846;4.078;2024-02-16T13:09:04;14.30;99.90
20658;DHT22;10488;50.846;4.078;2024-02-16T13:11:31;14.50;99.90
20658;DHT22;10488;50.846;4.078;2024-02-16T13:13:59;14.60;99.90
20658;DHT22;10488;50.846;4.078;2024-02-16T13:16:24;15.10;99.90
20658;DHT22;10488;50.846;4.078;2024-02-16T13:18:50;15.20;99.90
20658;DHT22;10488;50.846;4.078;2024-02-16T13:21:16;15.10;99.90
20658;DHT22;10488;50.846;4.078;2024-02-16T13:23:41;15.30;99.90
20658;DHT22;10488;50.846;4.078;2024-02-16T13:26:07;15.00;99.90
20658;DHT22;10488;50.846;4.078;2024-02-16T13:28:33;15.10;99.90
20658;DHT22;10488;50.846;4.078;2024-02-16T13:30:58;15.30;99.90
20658;DHT22;10488;50.846;4.078;2024-02-16T13:33:24;15.10;99.90
20658;DHT22;10488;50.846;4.078;2024-02-16T13:35:50;15.20;99.90
20658;DHT22;10488;50.846;4.078;2024-02-16T13:38:15;15.10;99.90
20658;DHT22;10488;50.846;4.078;2024-02-16T13:40:41;15.40;99.90
20658;DHT22;10488;50.846;4.078;2024-02-16T13:43:08;15.30;99.90
20658;DHT22;10488;50.846;4.078;2024-02-16T13:45:54;15.20;99.90
20658;DHT22;10488;50.846;4.078;2024-02-16T13:48:22;15.20;99.90
20658;DHT22;10488;50.846;4.078;2024-02-16T13:50:48;15.50;99.90
20658;DHT22;10488;50.846;4.078;2024-02-16T13:53:14;15.40;99.90
20658;DHT22;10488;50.846;4.078;2024-02-16T13:55:44;15.30;99.90
20658;DHT22;10488;50.846;4.078;2024-02-16T13:58:13;15.10;99.90
20658;DHT22;10488;50.846;4.078;2024-02-16T14:00:38;14.90;99.90
20658;DHT22;10488;50.846;4.078;2024-02-16T14:03:07;14.90;99.90
20658;DHT22;10488;50.846;4.078;2024-02-16T14:05:38;15.10;99.90
20658;DHT22;10488;50.846;4.078;2024-02-16T14:08:05;15.10;99.90
20658;DHT22;10488;50.846;4.078;2024-02-16T14:10:33;15.10;99.90
20658;DHT22;10488;50.846;4.078;2024-02-16T14:12:59;15.10;99.90
20658;DHT22;10488;50.846;4.078;2024-02-16T14:15:25;15.20;99.90
20658;DHT22;10488;50.846;4.078;2024-02-16T14:17:51;15.10;99.90
20658;DHT22;10488;50.846;4.078;2024-02-16T14:20:16;15.10;99.90
20658;DHT22;10488;50.846;4.078;2024-02-16T14:22:42;15.20;99.90
20658;DHT22;10488;50.846;4.078;2024-02-16T14:25:09;15.10;99.90
20658;DHT22;10488;50.846;4.078;2024-02-16T14:27:36;15.30;99.90
20658;DHT22;10488;50.846;4.078;2024-02-16T14:30:03;15.30;99.90
20658;DHT22;10488;50.846;4.078;2024-02-16T14:32:29;15.60;99.90
20658;DHT22;10488;50.846;4.078;2024-02-16T14:34:55;15.40;99.90
20658;DHT22;10488;50.846;4.078;2024-02-16T14:37:20;15.40;99.90
20658;DHT22;10488;50.846;4.078;2024-02-16T14:39:46;15.40;99.90
20658;DHT22;10488;50.846;4.078;2024-02-16T14:42:12;15.30;99.90
20658;DHT22;10488;50.846;4.078;2024-02-16T14:44:37;15.40;99.90
20658;DHT22;10488;50.846;4.078;2024-02-16T14:47:03;15.20;99.90
20658;DHT22;10488;50.846;4.078;2024-02-16T14:49:29;15.00;99.90
20658;DHT22;10488;50.846;4.078;2024-02-16T14:51:57;15.10;99.90
20658;DHT22;10488;50.846;4.078;2024-02-16T14:54:23;14.90;99.90
20658;DHT22;10488;50.846;4.078;2024-02-16T14:56:51;15.10;99.90
20658;DHT22;10488;50.846;4.078;2024-02-16T14:59:18;14.80;99.90
20658;DHT22;10488;50.846;4.078;2024-02-16T15:01:44;14.80;99.90
20658;DHT22;10488;50.846;4.078;2024-02-16T15:04:10;14.80;99.90
20658;DHT22;10488;50.846;4.078;2024-02-16T15:06:36;14.90;99.90
20658;DHT22;10488;50.846;4.078;2024-02-16T15:09:02;15.20;99.90
20658;DHT22;10488;50.846;4.078;2024-02-16T15:11:32;15.10;99.90
20658;DHT22;10488;50.846;4.078;2024-02-16T15:13:57;15.00;99.90
20658;DHT22;10488;50.846;4.078;2024-02-16T15:16:23;15.00;99.90
20658;DHT22;10488;50.846;4.078;2024-02-16T15:18:49;15.20;99.90
20658;DHT22;10488;50.846;4.078;2024-02-16T15:21:14;15.20;99.90
20658;DHT22;10488;50.846;4.078;2024-02-16T15:23:40;15.10;99.90
20658;DHT22;10488;50.846;4.078;2024-02-16T15:26:06;15.10;99.90